Hopedale, Ohio
Current Conditions -  °F | °C
As of 7:53 AM on Saturday 25 Oct 2014 (Local Time) from KHLG Reporting Station
Overcast Overcast  
Wind Chill: 42°   Ceiling: 3500
Heat Index: 46°   Visibility: 10mi
Dew Point: 39°   Wind: 8mph
Humidity: 76%   Direction: 170°S
Pressure: 29.97"   Gusts: NA
Location:  40.33°N, 80.9°W
Report Text: KHLG 251153Z AUTO 17007KT 10SM BKN035 OVC090 08/04 A2997 RMK AO2 SLP154 T00780039 10094 20072 58001
Loading
Personal Weather Stations






























Interactive Weather Map New forecast layout! Learn more

10-Day Weather Forecast

Advertisements
Track Severe Weather on mobile